sensor_id;sensor_type;location;lat;lon;timestamp;pressure;altitude;pressure_sealevel;temperature;humidity
40708;BME280;26392;42.696;23.350;2024-01-16T00:00:49;93842.84;;;3.38;100.00
40708;BME280;26392;42.696;23.350;2024-01-16T00:03:14;93849.63;;;3.41;100.00
40708;BME280;26392;42.696;23.350;2024-01-16T00:05:40;93856.22;;;3.50;100.00
40708;BME280;26392;42.696;23.350;2024-01-16T00:08:05;93866.06;;;3.61;100.00
40708;BME280;26392;42.696;23.350;2024-01-16T00:10:31;93868.53;;;3.63;100.00
40708;BME280;26392;42.696;23.350;2024-01-16T00:12:56;93883.13;;;3.67;100.00
40708;BME280;26392;42.696;23.350;2024-01-16T00:15:21;93868.03;;;3.66;100.00
40708;BME280;26392;42.696;23.350;2024-01-16T00:17:47;93867.22;;;3.65;100.00
40708;BME280;26392;42.696;23.350;2024-01-16T00:20:13;93874.25;;;3.66;100.00
40708;BME280;26392;42.696;23.350;2024-01-16T00:22:39;93878.09;;;3.70;100.00
40708;BME280;26392;42.696;23.350;2024-01-16T00:25:05;93863.97;;;3.63;100.00
40708;BME280;26392;42.696;23.350;2024-01-16T00:27:30;93880.94;;;3.64;100.00
40708;BME280;26392;42.696;23.350;2024-01-16T00:29:56;93882.16;;;3.73;100.00
40708;BME280;26392;42.696;23.350;2024-01-16T00:32:21;93884.00;;;3.72;100.00
40708;BME280;26392;42.696;23.350;2024-01-16T00:34:47;93887.16;;;3.64;100.00
40708;BME280;26392;42.696;23.350;2024-01-16T00:37:13;93886.16;;;3.70;100.00
40708;BME280;26392;42.696;23.350;2024-01-16T00:39:38;93889.47;;;3.77;100.00
40708;BME280;26392;42.696;23.350;2024-01-16T00:42:04;93887.38;;;3.79;100.00
40708;BME280;26392;42.696;23.350;2024-01-16T00:44:31;93886.06;;;3.82;100.00
40708;BME280;26392;42.696;23.350;2024-01-16T00:46:56;93879.59;;;3.83;100.00
40708;BME280;26392;42.696;23.350;2024-01-16T00:49:22;93889.38;;;3.89;100.00
40708;BME280;26392;42.696;23.350;2024-01-16T00:51:47;93887.31;;;3.96;100.00
40708;BME280;26392;42.696;23.350;2024-01-16T00:54:13;93889.84;;;4.03;100.00
40708;BME280;26392;42.696;23.350;2024-01-16T00:56:38;93879.75;;;3.93;100.00
40708;BME280;26392;42.696;23.350;2024-01-16T00:59:04;93895.56;;;4.07;100.00
40708;BME280;26392;42.696;23.350;2024-01-16T01:01:29;93900.44;;;4.10;100.00
40708;BME280;26392;42.696;23.350;2024-01-16T01:03:54;93912.03;;;4.10;100.00
40708;BME280;26392;42.696;23.350;2024-01-16T01:06:20;93915.47;;;4.06;100.00
40708;BME280;26392;42.696;23.350;2024-01-16T01:08:46;93904.88;;;3.99;100.00
40708;BME280;26392;42.696;23.350;2024-01-16T01:11:12;93930.22;;;3.98;100.00
40708;BME280;26392;42.696;23.350;2024-01-16T01:13:37;93911.28;;;3.93;100.00
40708;BME280;26392;42.696;23.350;2024-01-16T01:16:03;93927.81;;;4.01;100.00
40708;BME280;26392;42.696;23.350;2024-01-16T01:18:29;93913.19;;;3.97;100.00
40708;BME280;26392;42.696;23.350;2024-01-16T01:20:54;93908.06;;;3.96;100.00
40708;BME280;26392;42.696;23.350;2024-01-16T01:23:20;93895.09;;;3.93;100.00
40708;BME280;26392;42.696;23.350;2024-01-16T01:25:45;93898.91;;;3.97;100.00
40708;BME280;26392;42.696;23.350;2024-01-16T01:28:11;93900.06;;;4.01;100.00
40708;BME280;26392;42.696;23.350;2024-01-16T01:30:37;93888.72;;;3.99;100.00
40708;BME280;26392;42.696;23.350;2024-01-16T01:33:02;93884.06;;;3.94;100.00
40708;BME280;26392;42.696;23.350;2024-01-16T01:35:28;93903.31;;;4.03;100.00
40708;BME280;26392;42.696;23.350;2024-01-16T01:37:54;93904.19;;;4.09;100.00
40708;BME280;26392;42.696;23.350;2024-01-16T01:40:20;93903.88;;;4.05;100.00
40708;BME280;26392;42.696;23.350;2024-01-16T01:42:46;93901.69;;;4.02;100.00
40708;BME280;26392;42.696;23.350;2024-01-16T01:45:11;93901.25;;;4.10;100.00
40708;BME280;26392;42.696;23.350;2024-01-16T01:47:40;93884.91;;;4.17;100.00
40708;BME280;26392;42.696;23.350;2024-01-16T01:50:09;93901.69;;;4.02;100.00
40708;BME280;26392;42.696;23.350;2024-01-16T01:52:36;93923.47;;;4.00;100.00
40708;BME280;26392;42.696;23.350;2024-01-16T01:55:05;93897.03;;;3.97;100.00
40708;BME280;26392;42.696;23.350;2024-01-16T01:57:33;93877.25;;;3.87;100.00
40708;BME280;26392;42.696;23.350;2024-01-16T02:00:00;93902.59;;;3.91;100.00
40708;BME280;26392;42.696;23.350;2024-01-16T02:02:26;93904.56;;;3.95;100.00
40708;BME280;26392;42.696;23.350;2024-01-16T02:04:52;93902.41;;;3.97;100.00
40708;BME280;26392;42.696;23.350;2024-01-16T02:07:17;93913.28;;;4.02;100.00
40708;BME280;26392;42.696;23.350;2024-01-16T02:09:43;93903.66;;;4.07;100.00
40708;BME280;26392;42.696;23.350;2024-01-16T02:12:09;93906.88;;;4.09;100.00
40708;BME280;26392;42.696;23.350;2024-01-16T02:14:34;93890.84;;;3.97;100.00
40708;BME280;26392;42.696;23.350;2024-01-16T02:17:00;93909.28;;;4.05;100.00
40708;BME280;26392;42.696;23.350;2024-01-16T02:19:25;93887.72;;;4.05;100.00
40708;BME280;26392;42.696;23.350;2024-01-16T02:21:53;93922.91;;;4.15;100.00
40708;BME280;26392;42.696;23.350;2024-01-16T02:24:20;93922.47;;;4.23;100.00
40708;BME280;26392;42.696;23.350;2024-01-16T02:26:46;93923.09;;;4.31;100.00
40708;BME280;26392;42.696;23.350;2024-01-16T02:29:12;93921.09;;;4.21;100.00
40708;BME280;26392;42.696;23.350;2024-01-16T02:31:38;93939.44;;;4.24;100.00
40708;BME280;26392;42.696;23.350;2024-01-16T02:34:03;93927.78;;;4.18;100.00
40708;BME280;26392;42.696;23.350;2024-01-16T02:36:29;93951.03;;;4.24;100.00
40708;BME280;26392;42.696;23.350;2024-01-16T02:38:55;93940.75;;;4.21;100.00
40708;BME280;26392;42.696;23.350;2024-01-16T02:41:21;93916.28;;;4.06;100.00
40708;BME280;26392;42.696;23.350;2024-01-16T02:43:47;93942.91;;;4.02;100.00
40708;BME280;26392;42.696;23.350;2024-01-16T02:46:16;93967.44;;;4.01;100.00
40708;BME280;26392;42.696;23.350;2024-01-16T02:48:41;93960.56;;;4.10;100.00
40708;BME280;26392;42.696;23.350;2024-01-16T02:51:08;93961.72;;;3.97;100.00
40708;BME280;26392;42.696;23.350;2024-01-16T02:53:33;93993.41;;;4.07;100.00
40708;BME280;26392;42.696;23.350;2024-01-16T02:55:59;93997.22;;;4.11;100.00
40708;BME280;26392;42.696;23.350;2024-01-16T02:58:27;93996.06;;;4.24;100.00
40708;BME280;26392;42.696;23.350;2024-01-16T03:00:53;94013.22;;;4.35;100.00
40708;BME280;26392;42.696;23.350;2024-01-16T03:03:19;94023.50;;;4.38;100.00
40708;BME280;26392;42.696;23.350;2024-01-16T03:05:44;94023.81;;;4.41;100.00
40708;BME280;26392;42.696;23.350;2024-01-16T03:08:10;94022.50;;;4.44;100.00
40708;BME280;26392;42.696;23.350;2024-01-16T03:10:35;94037.09;;;4.48;100.00
40708;BME280;26392;42.696;23.350;2024-01-16T03:13:01;94042.84;;;4.52;100.00
40708;BME280;26392;42.696;23.350;2024-01-16T03:15:28;94047.25;;;4.58;100.00
40708;BME280;26392;42.696;23.350;2024-01-16T03:17:56;94053.13;;;4.55;100.00
40708;BME280;26392;42.696;23.350;2024-01-16T03:20:22;94070.50;;;4.64;100.00
40708;BME280;26392;42.696;23.350;2024-01-16T03:22:48;94062.72;;;4.67;100.00
40708;BME280;26392;42.696;23.350;2024-01-16T03:25:14;94067.47;;;4.77;100.00
40708;BME280;26392;42.696;23.350;2024-01-16T03:27:39;94079.72;;;4.85;100.00
40708;BME280;26392;42.696;23.350;2024-01-16T03:30:05;94071.78;;;4.78;100.00
40708;BME280;26392;42.696;23.350;2024-01-16T03:32:31;94088.56;;;4.80;100.00
40708;BME280;26392;42.696;23.350;2024-01-16T03:34:57;94101.81;;;4.82;100.00
40708;BME280;26392;42.696;23.350;2024-01-16T03:37:22;94111.59;;;4.88;100.00
40708;BME280;26392;42.696;23.350;2024-01-16T03:39:48;94115.22;;;4.77;100.00
40708;BME280;26392;42.696;23.350;2024-01-16T03:42:15;94128.63;;;4.71;100.00
40708;BME280;26392;42.696;23.350;2024-01-16T03:44:41;94124.31;;;4.54;100.00
40708;BME280;26392;42.696;23.350;2024-01-16T03:47:07;94138.22;;;4.45;100.00
40708;BME280;26392;42.696;23.350;2024-01-16T03:49:32;94137.56;;;4.38;100.00
40708;BME280;26392;42.696;23.350;2024-01-16T03:51:58;94152.03;;;4.32;100.00
40708;BME280;26392;42.696;23.350;2024-01-16T03:54:24;94152.25;;;4.31;100.00
40708;BME280;26392;42.696;23.350;2024-01-16T03:56:49;94147.94;;;4.13;100.00
40708;BME280;26392;42.696;23.350;2024-01-16T03:59:16;94168.69;;;4.12;100.00
40708;BME280;26392;42.696;23.350;2024-01-16T04:01:41;94172.78;;;4.15;100.00
40708;BME280;26392;42.696;23.350;2024-01-16T04:04:09;94179.38;;;4.07;100.00
40708;BME280;26392;42.696;23.350;2024-01-16T04:06:35;94190.63;;;4.04;100.00
40708;BME280;26392;42.696;23.350;2024-01-16T04:09:01;94192.25;;;4.05;100.00
40708;BME280;26392;42.696;23.350;2024-01-16T04:11:28;94194.97;;;4.05;100.00
40708;BME280;26392;42.696;23.350;2024-01-16T04:13:53;94208.75;;;4.09;100.00
40708;BME280;26392;42.696;23.350;2024-01-16T04:16:19;94190.22;;;3.95;100.00
40708;BME280;26392;42.696;23.350;2024-01-16T04:18:44;94207.28;;;4.01;100.00
40708;BME280;26392;42.696;23.350;2024-01-16T04:21:10;94207.19;;;3.96;100.00
40708;BME280;26392;42.696;23.350;2024-01-16T04:23:36;94225.97;;;3.91;100.00
40708;BME280;26392;42.696;23.350;2024-01-16T04:26:02;94224.88;;;3.92;100.00
40708;BME280;26392;42.696;23.350;2024-01-16T04:28:27;94230.66;;;3.84;100.00
40708;BME280;26392;42.696;23.350;2024-01-16T04:30:53;94241.91;;;3.80;100.00
40708;BME280;26392;42.696;23.350;2024-01-16T04:33:19;94240.06;;;3.69;100.00
40708;BME280;26392;42.696;23.350;2024-01-16T04:35:44;94238.06;;;3.76;100.00
40708;BME280;26392;42.696;23.350;2024-01-16T04:38:10;94236.28;;;3.82;100.00
40708;BME280;26392;42.696;23.350;2024-01-16T04:40:35;94242.66;;;3.76;100.00
40708;BME280;26392;42.696;23.350;2024-01-16T04:43:01;94250.63;;;3.71;100.00
40708;BME280;26392;42.696;23.350;2024-01-16T04:45:26;94249.69;;;3.65;100.00
40708;BME280;26392;42.696;23.350;2024-01-16T04:47:52;94272.06;;;3.66;100.00
40708;BME280;26392;42.696;23.350;2024-01-16T04:50:18;94282.34;;;3.69;100.00
40708;BME280;26392;42.696;23.350;2024-01-16T04:52:43;94296.56;;;3.64;100.00
40708;BME280;26392;42.696;23.350;2024-01-16T04:55:09;94291.63;;;3.61;100.00
40708;BME280;26392;42.696;23.350;2024-01-16T04:57:34;94307.09;;;3.54;100.00
40708;BME280;26392;42.696;23.350;2024-01-16T05:00:00;94321.63;;;3.53;100.00
40708;BME280;26392;42.696;23.350;2024-01-16T05:02:25;94325.13;;;3.42;100.00
40708;BME280;26392;42.696;23.350;2024-01-16T05:04:51;94331.34;;;3.42;100.00
40708;BME280;26392;42.696;23.350;2024-01-16T05:07:20;94330.50;;;3.42;100.00
40708;BME280;26392;42.696;23.350;2024-01-16T05:09:46;94323.72;;;3.27;100.00
40708;BME280;26392;42.696;23.350;2024-01-16T05:12:12;94358.03;;;3.32;100.00
40708;BME280;26392;42.696;23.350;2024-01-16T05:14:38;94354.75;;;3.30;100.00
40708;BME280;26392;42.696;23.350;2024-01-16T05:17:03;94366.31;;;3.30;100.00
40708;BME280;26392;42.696;23.350;2024-01-16T05:19:29;94349.59;;;3.17;100.00
40708;BME280;26392;42.696;23.350;2024-01-16T05:21:54;94383.53;;;3.29;100.00
40708;BME280;26392;42.696;23.350;2024-01-16T05:24:20;94375.00;;;3.21;100.00
40708;BME280;26392;42.696;23.350;2024-01-16T05:26:45;94394.66;;;3.21;100.00
40708;BME280;26392;42.696;23.350;2024-01-16T05:29:11;94408.81;;;3.17;100.00
40708;BME280;26392;42.696;23.350;2024-01-16T05:31:43;94420.75;;;3.21;100.00
40708;BME280;26392;42.696;23.350;2024-01-16T05:34:09;94419.00;;;3.14;100.00
40708;BME280;26392;42.696;23.350;2024-01-16T05:36:34;94422.28;;;3.17;100.00
40708;BME280;26392;42.696;23.350;2024-01-16T05:39:00;94432.13;;;3.23;100.00
40708;BME280;26392;42.696;23.350;2024-01-16T05:41:26;94436.44;;;3.24;100.00
40708;BME280;26392;42.696;23.350;2024-01-16T05:43:52;94429.75;;;3.14;100.00
40708;BME280;26392;42.696;23.350;2024-01-16T05:46:18;94459.00;;;3.11;100.00
40708;BME280;26392;42.696;23.350;2024-01-16T05:48:43;94462.28;;;3.13;100.00
40708;BME280;26392;42.696;23.350;2024-01-16T05:51:09;94475.72;;;3.13;100.00
40708;BME280;26392;42.696;23.350;2024-01-16T05:53:34;94477.59;;;3.12;100.00
40708;BME280;26392;42.696;23.350;2024-01-16T05:56:00;94483.44;;;3.09;100.00
40708;BME280;26392;42.696;23.350;2024-01-16T05:58:25;94487.66;;;3.05;100.00
40708;BME280;26392;42.696;23.350;2024-01-16T06:00:51;94500.66;;;3.08;100.00
40708;BME280;26392;42.696;23.350;2024-01-16T06:03:16;94516.41;;;3.05;100.00
40708;BME280;26392;42.696;23.350;2024-01-16T06:05:41;94513.72;;;3.05;100.00
40708;BME280;26392;42.696;23.350;2024-01-16T06:08:07;94534.44;;;3.04;100.00
40708;BME280;26392;42.696;23.350;2024-01-16T06:10:33;94526.16;;;3.06;100.00
40708;BME280;26392;42.696;23.350;2024-01-16T06:12:58;94531.69;;;3.11;100.00
40708;BME280;26392;42.696;23.350;2024-01-16T06:15:24;94530.00;;;3.10;100.00
40708;BME280;26392;42.696;23.350;2024-01-16T06:17:49;94549.16;;;3.20;100.00
40708;BME280;26392;42.696;23.350;2024-01-16T06:20:14;94553.47;;;3.21;100.00
40708;BME280;26392;42.696;23.350;2024-01-16T06:22:40;94564.25;;;3.21;100.00
40708;BME280;26392;42.696;23.350;2024-01-16T06:25:05;94567.25;;;3.13;100.00
40708;BME280;26392;42.696;23.350;2024-01-16T06:27:31;94560.09;;;3.07;100.00
40708;BME280;26392;42.696;23.350;2024-01-16T06:29:57;94580.13;;;3.11;100.00
40708;BME280;26392;42.696;23.350;2024-01-16T06:32:23;94584.75;;;3.04;100.00
40708;BME280;26392;42.696;23.350;2024-01-16T06:34:49;94583.25;;;3.08;100.00
40708;BME280;26392;42.696;23.350;2024-01-16T06:37:14;94581.41;;;3.08;100.00
40708;BME280;26392;42.696;23.350;2024-01-16T06:39:39;94592.84;;;3.04;100.00
40708;BME280;26392;42.696;23.350;2024-01-16T06:42:05;94594.25;;;3.06;100.00
40708;BME280;26392;42.696;23.350;2024-01-16T06:44:31;94601.28;;;3.07;100.00
40708;BME280;26392;42.696;23.350;2024-01-16T06:46:56;94606.28;;;3.04;100.00
40708;BME280;26392;42.696;23.350;2024-01-16T06:49:22;94617.81;;;2.92;100.00
40708;BME280;26392;42.696;23.350;2024-01-16T06:51:47;94628.13;;;2.96;100.00
40708;BME280;26392;42.696;23.350;2024-01-16T06:54:13;94627.22;;;3.02;100.00
40708;BME280;26392;42.696;23.350;2024-01-16T06:56:38;94642.53;;;3.01;100.00
40708;BME280;26392;42.696;23.350;2024-01-16T06:59:04;94618.75;;;2.80;100.00
40708;BME280;26392;42.696;23.350;2024-01-16T07:01:29;94639.34;;;2.92;100.00
40708;BME280;26392;42.696;23.350;2024-01-16T07:03:55;94658.00;;;2.87;100.00
40708;BME280;26392;42.696;23.350;2024-01-16T07:06:21;94651.53;;;2.95;100.00
40708;BME280;26392;42.696;23.350;2024-01-16T07:08:46;94655.63;;;2.98;100.00
40708;BME280;26392;42.696;23.350;2024-01-16T07:11:12;94659.22;;;2.91;100.00
40708;BME280;26392;42.696;23.350;2024-01-16T07:13:40;94663.84;;;2.84;100.00
40708;BME280;26392;42.696;23.350;2024-01-16T07:16:09;94675.13;;;2.93;100.00
40708;BME280;26392;42.696;23.350;2024-01-16T07:18:35;94685.72;;;2.88;100.00
40708;BME280;26392;42.696;23.350;2024-01-16T07:21:01;94700.59;;;2.90;100.00
40708;BME280;26392;42.696;23.350;2024-01-16T07:23:28;94713.16;;;2.97;100.00
40708;BME280;26392;42.696;23.350;2024-01-16T07:25:53;94724.53;;;2.99;100.00
40708;BME280;26392;42.696;23.350;2024-01-16T07:28:19;94723.50;;;3.00;100.00
40708;BME280;26392;42.696;23.350;2024-01-16T07:30:47;94722.81;;;2.86;100.00
40708;BME280;26392;42.696;23.350;2024-01-16T07:33:13;94742.03;;;2.89;100.00
40708;BME280;26392;42.696;23.350;2024-01-16T07:35:39;94715.78;;;2.85;100.00
40708;BME280;26392;42.696;23.350;2024-01-16T07:38:06;94744.72;;;2.89;100.00
40708;BME280;26392;42.696;23.350;2024-01-16T07:40:31;94756.75;;;2.87;100.00
40708;BME280;26392;42.696;23.350;2024-01-16T07:42:57;94758.16;;;2.89;100.00
40708;BME280;26392;42.696;23.350;2024-01-16T07:45:23;94762.13;;;2.87;100.00
40708;BME280;26392;42.696;23.350;2024-01-16T07:47:49;94760.22;;;2.94;100.00
40708;BME280;26392;42.696;23.350;2024-01-16T07:50:15;94769.38;;;2.86;100.00
40708;BME280;26392;42.696;23.350;2024-01-16T07:52:40;94781.50;;;2.96;100.00
40708;BME280;26392;42.696;23.350;2024-01-16T07:55:06;94773.88;;;2.92;100.00
40708;BME280;26392;42.696;23.350;2024-01-16T07:57:31;94772.88;;;2.87;100.00
40708;BME280;26392;42.696;23.350;2024-01-16T07:59:57;94788.31;;;2.98;100.00
40708;BME280;26392;42.696;23.350;2024-01-16T08:02:30;94804.53;;;2.91;100.00
40708;BME280;26392;42.696;23.350;2024-01-16T08:04:56;94800.00;;;2.85;100.00
40708;BME280;26392;42.696;23.350;2024-01-16T08:07:22;94809.13;;;2.84;100.00
40708;BME280;26392;42.696;23.350;2024-01-16T08:09:47;94789.69;;;2.82;100.00
40708;BME280;26392;42.696;23.350;2024-01-16T08:12:13;94817.19;;;3.09;100.00
40708;BME280;26392;42.696;23.350;2024-01-16T08:14:39;94810.56;;;3.12;100.00
40708;BME280;26392;42.696;23.350;2024-01-16T08:17:04;94809.72;;;3.11;100.00
40708;BME280;26392;42.696;23.350;2024-01-16T08:19:30;94831.25;;;3.11;100.00
40708;BME280;26392;42.696;23.350;2024-01-16T08:21:55;94844.31;;;3.08;100.00
40708;BME280;26392;42.696;23.350;2024-01-16T08:24:21;94845.97;;;3.09;100.00
40708;BME280;26392;42.696;23.350;2024-01-16T08:26:48;94834.44;;;3.02;100.00
40708;BME280;26392;42.696;23.350;2024-01-16T08:29:13;94844.09;;;3.09;100.00
40708;BME280;26392;42.696;23.350;2024-01-16T08:31:38;94861.16;;;3.28;100.00
40708;BME280;26392;42.696;23.350;2024-01-16T08:34:04;94855.06;;;3.33;100.00
40708;BME280;26392;42.696;23.350;2024-01-16T08:36:29;94861.16;;;3.28;100.00
40708;BME280;26392;42.696;23.350;2024-01-16T08:38:55;94874.97;;;3.32;100.00
40708;BME280;26392;42.696;23.350;2024-01-16T08:41:21;94875.44;;;3.29;100.00
40708;BME280;26392;42.696;23.350;2024-01-16T08:43:46;94874.16;;;3.31;100.00
40708;BME280;26392;42.696;23.350;2024-01-16T08:46:12;94884.50;;;3.34;100.00
40708;BME280;26392;42.696;23.350;2024-01-16T08:48:37;94880.97;;;3.34;100.00
40708;BME280;26392;42.696;23.350;2024-01-16T08:51:07;94875.16;;;3.37;100.00
40708;BME280;26392;42.696;23.350;2024-01-16T08:53:34;94890.06;;;3.33;100.00
40708;BME280;26392;42.696;23.350;2024-01-16T08:55:59;94895.97;;;3.23;100.00
40708;BME280;26392;42.696;23.350;2024-01-16T08:58:25;94896.84;;;3.17;100.00
40708;BME280;26392;42.696;23.350;2024-01-16T09:00:52;94903.88;;;3.18;100.00
40708;BME280;26392;42.696;23.350;2024-01-16T09:03:17;94908.28;;;3.38;100.00
40708;BME280;26392;42.696;23.350;2024-01-16T09:05:43;94907.28;;;3.32;100.00
40708;BME280;26392;42.696;23.350;2024-01-16T09:08:09;94902.69;;;3.39;100.00
40708;BME280;26392;42.696;23.350;2024-01-16T09:10:34;94906.47;;;3.56;100.00
40708;BME280;26392;42.696;23.350;2024-01-16T09:13:01;94904.22;;;3.72;100.00
40708;BME280;26392;42.696;23.350;2024-01-16T09:15:27;94903.78;;;3.56;100.00
40708;BME280;26392;42.696;23.350;2024-01-16T09:17:53;94911.56;;;3.65;100.00
40708;BME280;26392;42.696;23.350;2024-01-16T09:20:18;94909.84;;;3.70;100.00
40708;BME280;26392;42.696;23.350;2024-01-16T09:22:44;94916.16;;;3.83;100.00
40708;BME280;26392;42.696;23.350;2024-01-16T09:25:09;94906.94;;;3.72;100.00
40708;BME280;26392;42.696;23.350;2024-01-16T09:27:34;94935.13;;;3.69;100.00
40708;BME280;26392;42.696;23.350;2024-01-16T09:30:00;94932.31;;;3.64;100.00
40708;BME280;26392;42.696;23.350;2024-01-16T09:32:25;94926.72;;;3.84;100.00
40708;BME280;26392;42.696;23.350;2024-01-16T09:34:51;94928.16;;;4.05;100.00
40708;BME280;26392;42.696;23.350;2024-01-16T09:37:16;94927.09;;;4.06;100.00
40708;BME280;26392;42.696;23.350;2024-01-16T09:45:21;94926.19;;;4.31;100.00
40708;BME280;26392;42.696;23.350;2024-01-16T09:47:49;94932.88;;;4.28;100.00
40708;BME280;26392;42.696;23.350;2024-01-16T09:50:16;94931.53;;;4.19;100.00
40708;BME280;26392;42.696;23.350;2024-01-16T09:52:48;94943.66;;;4.28;100.00
40708;BME280;26392;42.696;23.350;2024-01-16T09:55:14;94949.44;;;4.32;100.00
40708;BME280;26392;42.696;23.350;2024-01-16T09:57:40;94941.41;;;4.07;100.00
40708;BME280;26392;42.696;23.350;2024-01-16T10:00:10;94931.00;;;4.10;100.00
40708;BME280;26392;42.696;23.350;2024-01-16T10:02:39;94934.28;;;3.94;100.00
40708;BME280;26392;42.696;23.350;2024-01-16T10:05:10;94928.06;;;3.93;100.00
40708;BME280;26392;42.696;23.350;2024-01-16T10:07:41;94934.75;;;4.09;100.00
40708;BME280;26392;42.696;23.350;2024-01-16T10:10:07;94939.22;;;4.34;100.00
40708;BME280;26392;42.696;23.350;2024-01-16T10:12:37;94938.13;;;4.41;100.00
40708;BME280;26392;42.696;23.350;2024-01-16T10:15:05;94925.91;;;4.57;100.00
40708;BME280;26392;42.696;23.350;2024-01-16T10:17:43;94921.72;;;4.73;97.81
40708;BME280;26392;42.696;23.350;2024-01-16T10:20:10;94927.19;;;4.85;96.59
40708;BME280;26392;42.696;23.350;2024-01-16T10:22:39;94941.56;;;4.79;93.99
40708;BME280;26392;42.696;23.350;2024-01-16T10:25:09;94935.47;;;4.71;91.02
40708;BME280;26392;42.696;23.350;2024-01-16T10:27:36;94948.03;;;4.78;91.19
40708;BME280;26392;42.696;23.350;2024-01-16T10:30:02;94939.59;;;4.74;92.07
40708;BME280;26392;42.696;23.350;2024-01-16T10:32:30;94917.34;;;4.60;92.21
40708;BME280;26392;42.696;23.350;2024-01-16T10:35:03;94939.47;;;4.81;91.13
40708;BME280;26392;42.696;23.350;2024-01-16T10:37:31;94953.53;;;4.71;87.15
40708;BME280;26392;42.696;23.350;2024-01-16T10:40:07;94938.47;;;4.63;88.42
40708;BME280;26392;42.696;23.350;2024-01-16T10:42:32;94942.81;;;4.64;89.16
40708;BME280;26392;42.696;23.350;2024-01-16T10:44:58;94951.16;;;4.63;88.44
40708;BME280;26392;42.696;23.350;2024-01-16T10:47:23;94949.69;;;4.79;88.34
40708;BME280;26392;42.696;23.350;2024-01-16T10:49:49;94953.03;;;4.92;86.01
40708;BME280;26392;42.696;23.350;2024-01-16T10:52:17;94958.38;;;5.11;83.92
40708;BME280;26392;42.696;23.350;2024-01-16T10:54:43;94951.06;;;5.30;82.60
40708;BME280;26392;42.696;23.350;2024-01-16T10:57:15;94932.06;;;5.06;83.34
40708;BME280;26392;42.696;23.350;2024-01-16T10:59:52;94938.19;;;5.13;84.18
40708;BME280;26392;42.696;23.350;2024-01-16T11:02:24;94936.53;;;5.12;81.78
40708;BME280;26392;42.696;23.350;2024-01-16T11:04:55;94945.50;;;5.25;81.65
40708;BME280;26392;42.696;23.350;2024-01-16T11:07:23;94959.03;;;5.36;81.93
40708;BME280;26392;42.696;23.350;2024-01-16T11:09:51;94957.81;;;5.21;80.59
40708;BME280;26392;42.696;23.350;2024-01-16T11:12:17;94955.97;;;5.21;78.64
40708;BME280;26392;42.696;23.350;2024-01-16T11:14:45;94971.91;;;5.23;77.87
40708;BME280;26392;42.696;23.350;2024-01-16T11:17:13;94974.59;;;5.11;78.38
40708;BME280;26392;42.696;23.350;2024-01-16T11:19:44;94975.22;;;5.25;78.34
40708;BME280;26392;42.696;23.350;2024-01-16T11:22:10;94968.91;;;5.31;78.55
40708;BME280;26392;42.696;23.350;2024-01-16T11:24:36;94946.03;;;5.03;78.67
40708;BME280;26392;42.696;23.350;2024-01-16T11:27:02;94961.13;;;4.92;79.30
40708;BME280;26392;42.696;23.350;2024-01-16T11:31:54;94970.94;;;4.87;78.10
40708;BME280;26392;42.696;23.350;2024-01-16T11:37:15;94970.91;;;4.75;79.46
40708;BME280;26392;42.696;23.350;2024-01-16T11:39:48;94967.72;;;4.97;81.02
40708;BME280;26392;42.696;23.350;2024-01-16T11:42:25;94974.47;;;5.18;79.14
40708;BME280;26392;42.696;23.350;2024-01-16T11:44:51;94973.28;;;5.02;80.44
40708;BME280;26392;42.696;23.350;2024-01-16T11:47:23;94980.25;;;4.91;81.44
40708;BME280;26392;42.696;23.350;2024-01-16T11:50:09;94967.69;;;4.66;81.88
40708;BME280;26392;42.696;23.350;2024-01-16T11:52:43;94978.72;;;4.46;85.18
40708;BME280;26392;42.696;23.350;2024-01-16T11:55:28;94987.44;;;4.48;90.51
40708;BME280;26392;42.696;23.350;2024-01-16T12:00:47;94978.59;;;4.60;87.47
40708;BME280;26392;42.696;23.350;2024-01-16T12:03:18;94977.00;;;4.70;86.53
40708;BME280;26392;42.696;23.350;2024-01-16T12:05:58;94988.84;;;4.69;86.32
40708;BME280;26392;42.696;23.350;2024-01-16T12:08:24;94988.53;;;4.78;87.14
40708;BME280;26392;42.696;23.350;2024-01-16T12:10:49;94999.47;;;4.83;85.89
40708;BME280;26392;42.696;23.350;2024-01-16T12:13:15;94999.38;;;4.89;86.22
40708;BME280;26392;42.696;23.350;2024-01-16T12:15:41;95012.16;;;4.64;84.68
40708;BME280;26392;42.696;23.350;2024-01-16T12:18:07;95016.81;;;4.57;85.27
40708;BME280;26392;42.696;23.350;2024-01-16T12:20:35;94999.25;;;4.66;84.64
40708;BME280;26392;42.696;23.350;2024-01-16T12:23:05;94995.66;;;4.54;84.24
40708;BME280;26392;42.696;23.350;2024-01-16T12:25:35;94991.25;;;4.41;85.48
40708;BME280;26392;42.696;23.350;2024-01-16T12:28:05;94997.63;;;4.46;85.79
40708;BME280;26392;42.696;23.350;2024-01-16T12:30:35;95009.50;;;4.20;84.46
40708;BME280;26392;42.696;23.350;2024-01-16T12:35:41;95008.59;;;3.83;86.84
40708;BME280;26392;42.696;23.350;2024-01-16T12:38:09;95004.44;;;3.87;88.02
40708;BME280;26392;42.696;23.350;2024-01-16T12:40:35;95019.91;;;3.92;87.86
40708;BME280;26392;42.696;23.350;2024-01-16T12:43:04;95019.06;;;3.98;86.70
40708;BME280;26392;42.696;23.350;2024-01-16T12:45:30;95032.22;;;4.06;83.91
40708;BME280;26392;42.696;23.350;2024-01-16T12:47:56;95031.47;;;3.99;84.44
40708;BME280;26392;42.696;23.350;2024-01-16T12:50:27;95022.31;;;4.07;85.09
40708;BME280;26392;42.696;23.350;2024-01-16T12:53:21;95012.66;;;4.17;85.90
40708;BME280;26392;42.696;23.350;2024-01-16T12:56:00;95011.75;;;4.23;86.13
40708;BME280;26392;42.696;23.350;2024-01-16T12:58:32;95016.88;;;4.32;87.14
40708;BME280;26392;42.696;23.350;2024-01-16T13:01:23;95013.50;;;4.55;84.73
40708;BME280;26392;42.696;23.350;2024-01-16T13:03:50;95020.00;;;4.47;83.93
40708;BME280;26392;42.696;23.350;2024-01-16T13:06:20;95024.22;;;4.43;84.03